KPIT/PIT METAR and TAF weather

Enter ICAO airport designator
Station Type Date Time Source
KPIT METAR 2020/04/06 13:51 UTC NOAA

KPIT 061351Z 00000KT 10SM FEW120 BKN250 06/02 A3015 RMK AO2 SLP223 T00610022


Station Type Date Time Source
KPIT Decoded METAR 2020/04/06 13:51 UTC NOAA

GREATER PITTSBURGH INTERNATIONAL , PA, United States (KPIT) 40-29N 80-14W 357M
Apr 06, 2020 - 09:51 AM EDT / 2020.04.06 1351 UTC
Wind: Calm:0
Visibility: 10 mile(s):0
Sky conditions: mostly cloudy
Temperature: 43.0 F (6.1 C)
Dew Point: 36.0 F (2.2 C)
Relative Humidity: 76%
Pressure (altimeter): 30.15 in. Hg (1020 hPa)
ob: KPIT 061351Z 00000KT 10SM FEW120 BKN250 06/02 A3015 RMK AO2 SLP223 T00610022
cycle: 14

Station Type Date Time Source
KPIT TAF 2020/04/06 12:24 UTC NOAA

TAF KPIT 061120Z 0612/0718 01005KT P6SM SCT200
FM061500 05005KT P6SM SCT250
FM070000 VRB03KT P6SM BKN100
FM070600 25003KT P6SM VCSH OVC050
FM070900 18003KT P6SM SHRA OVC025
FM071200 19003KT 6SM SHRA OVC015

Example: see airport list